createdAt,value
2019-03-13T00:00:26.070Z,-8.25
2019-03-13T00:02:52.102Z,-8.29
2019-03-13T00:05:18.049Z,-8.36
2019-03-13T00:07:44.106Z,-8.37
2019-03-13T00:10:10.159Z,-8.37
2019-03-13T00:12:36.127Z,-8.35
2019-03-13T00:15:02.585Z,-8.36
2019-03-13T00:17:28.550Z,-8.43
2019-03-13T00:19:54.513Z,-8.50
2019-03-13T00:22:20.462Z,-8.51
2019-03-13T00:24:46.313Z,-8.49
2019-03-13T00:27:12.465Z,-8.45
2019-03-13T00:29:38.322Z,-8.42
2019-03-13T00:32:06.072Z,-8.38
2019-03-13T00:34:31.916Z,-8.36
2019-03-13T00:36:57.772Z,-8.34
2019-03-13T00:39:23.823Z,-8.35
2019-03-13T00:41:49.721Z,-8.34
2019-03-13T00:44:15.653Z,-8.32
2019-03-13T00:46:41.649Z,-8.31
2019-03-13T00:49:07.501Z,-8.33
2019-03-13T00:51:36.711Z,-8.39
2019-03-13T00:54:01.032Z,-8.46
2019-03-13T00:56:29.110Z,-8.49
2019-03-13T00:58:54.970Z,-8.52
2019-03-13T01:01:31.909Z,-8.54
2019-03-13T01:03:59.669Z,-8.56
2019-03-13T01:06:27.502Z,-8.52
2019-03-13T01:08:53.395Z,-8.49
2019-03-13T01:11:19.354Z,-8.44
2019-03-13T01:13:45.235Z,-8.40
2019-03-13T01:16:11.288Z,-8.36
2019-03-13T01:18:37.243Z,-8.34
2019-03-13T01:21:03.171Z,-8.36
2019-03-13T01:23:29.090Z,-8.38
2019-03-13T01:25:54.935Z,-8.38
2019-03-13T01:28:20.919Z,-8.37
2019-03-13T01:30:57.360Z,-8.36
2019-03-13T01:33:23.235Z,-8.33
2019-03-13T01:35:53.847Z,-8.31
2019-03-13T01:38:19.693Z,-8.30
2019-03-13T01:40:45.607Z,-8.33
2019-03-13T01:43:11.495Z,-8.36
2019-03-13T01:45:37.451Z,-8.37
2019-03-13T01:48:03.390Z,-8.34
2019-03-13T01:50:29.357Z,-8.31
2019-03-13T01:52:55.361Z,-8.29
2019-03-13T01:55:21.402Z,-8.26
2019-03-13T01:57:47.269Z,-8.26
2019-03-13T02:00:14.876Z,-8.25
2019-03-13T02:02:41.016Z,-8.24
2019-03-13T02:05:07.073Z,-8.22
2019-03-13T02:07:32.980Z,-8.19
2019-03-13T02:09:58.828Z,-8.16
2019-03-13T02:12:24.663Z,-8.14
2019-03-13T02:14:50.567Z,-8.10
2019-03-13T02:17:16.528Z,-8.09
2019-03-13T02:19:42.388Z,-8.09
2019-03-13T02:22:08.360Z,-8.10
2019-03-13T02:24:34.501Z,-8.08
2019-03-13T02:27:00.465Z,-8.07
2019-03-13T02:29:26.338Z,-8.04
2019-03-13T02:31:52.191Z,-8.02
2019-03-13T02:34:18.158Z,-8.00
2019-03-13T02:36:44.033Z,-7.97
2019-03-13T02:39:09.899Z,-7.95
2019-03-13T02:41:35.767Z,-7.94
2019-03-13T02:44:01.708Z,-8.20
2019-03-13T02:46:27.539Z,-7.90
2019-03-13T02:48:53.395Z,-7.87
2019-03-13T02:51:19.278Z,-7.83
2019-03-13T02:53:45.247Z,-7.81
2019-03-13T02:56:11.323Z,-7.79
2019-03-13T02:58:37.185Z,-7.77
2019-03-13T03:01:11.269Z,-7.75
2019-03-13T03:03:39.123Z,-7.76
2019-03-13T03:06:05.009Z,-7.79
2019-03-13T03:08:30.993Z,-7.81
2019-03-13T03:10:56.814Z,-7.78
2019-03-13T03:13:22.681Z,-7.76
2019-03-13T03:15:48.659Z,-7.72
2019-03-13T03:18:14.601Z,-7.70
2019-03-13T03:20:40.453Z,-7.70
2019-03-13T03:23:06.483Z,-7.68
2019-03-13T03:25:32.442Z,-7.68
2019-03-13T03:27:58.299Z,-7.67
2019-03-13T03:30:24.283Z,-7.68
2019-03-13T03:32:50.190Z,-7.68
2019-03-13T03:35:16.228Z,-7.68
2019-03-13T03:37:42.164Z,-7.68
2019-03-13T03:40:09.728Z,-7.67
2019-03-13T03:42:35.821Z,-7.66
2019-03-13T03:45:02.017Z,-7.65
2019-03-13T03:47:27.850Z,-7.65
2019-03-13T03:49:53.711Z,-7.62
2019-03-13T03:52:19.613Z,-7.61
2019-03-13T03:54:45.573Z,-7.61
2019-03-13T03:57:11.523Z,-7.61
2019-03-13T03:59:37.421Z,-7.61
2019-03-13T04:02:03.378Z,-7.60
2019-03-13T04:04:29.348Z,-7.59
2019-03-13T04:06:55.208Z,-7.59
2019-03-13T04:09:21.171Z,-7.58
2019-03-13T04:11:47.039Z,-7.56
2019-03-13T04:14:12.893Z,-7.55
2019-03-13T04:16:38.725Z,-7.53
2019-03-13T04:19:04.606Z,-7.53
2019-03-13T04:21:30.447Z,-7.51
2019-03-13T04:23:56.324Z,-7.49
2019-03-13T04:26:22.182Z,-7.47
2019-03-13T04:28:48.025Z,-7.45
2019-03-13T04:31:13.903Z,-7.44
2019-03-13T04:33:39.763Z,-7.43
2019-03-13T04:36:05.623Z,-7.41
2019-03-13T04:38:31.480Z,-7.40
2019-03-13T04:40:57.338Z,-7.38
2019-03-13T04:43:23.194Z,-7.37
2019-03-13T04:45:49.149Z,-7.36
2019-03-13T04:48:15.023Z,-7.35
2019-03-13T04:50:40.855Z,-7.33
2019-03-13T04:53:06.720Z,-7.31
2019-03-13T04:55:32.679Z,-7.29
2019-03-13T04:57:58.507Z,-7.28
2019-03-13T05:00:24.396Z,-7.25
2019-03-13T05:02:50.267Z,-7.25
2019-03-13T05:05:36.398Z,-7.23
2019-03-13T05:08:02.366Z,-7.21
2019-03-13T05:10:28.217Z,-7.20
2019-03-13T05:12:54.198Z,-7.17
2019-03-13T05:15:20.054Z,-7.15
2019-03-13T05:17:45.955Z,-7.13
2019-03-13T05:20:13.844Z,-7.11
2019-03-13T05:22:39.551Z,-7.08
2019-03-13T05:25:05.826Z,-7.05
2019-03-13T05:27:31.777Z,-7.03
2019-03-13T05:29:57.636Z,-7.01
2019-03-13T05:32:23.493Z,-6.99
2019-03-13T05:34:49.345Z,-6.98
2019-03-13T05:37:15.320Z,-6.97
2019-03-13T05:39:41.180Z,-6.95
2019-03-13T05:42:07.014Z,-6.93
2019-03-13T05:44:32.909Z,-6.93
2019-03-13T05:46:58.763Z,-6.92
2019-03-13T05:49:24.630Z,-6.96
2019-03-13T05:51:50.633Z,-6.89
2019-03-13T05:54:16.465Z,-6.88
2019-03-13T05:56:42.438Z,-6.86
2019-03-13T05:59:08.296Z,-6.86
2019-03-13T06:01:34.138Z,-6.84
2019-03-13T06:04:00.011Z,-6.82
2019-03-13T06:06:26.053Z,-6.81
2019-03-13T06:08:52.043Z,-6.78
2019-03-13T06:11:18.012Z,-6.77
2019-03-13T06:13:47.049Z,-6.75
2019-03-13T06:16:11.663Z,-6.73
2019-03-13T06:18:37.617Z,-6.72
2019-03-13T06:21:03.463Z,-6.70
2019-03-13T06:23:29.311Z,-6.69
2019-03-13T06:25:55.309Z,-6.68
2019-03-13T06:28:21.279Z,-6.66
2019-03-13T06:30:47.147Z,-6.64
2019-03-13T06:33:12.999Z,-6.62
2019-03-13T06:35:38.956Z,-6.62
2019-03-13T06:38:04.935Z,-6.60
2019-03-13T06:40:30.827Z,-6.57
2019-03-13T06:42:56.665Z,-6.54
2019-03-13T06:45:23.465Z,-6.51
2019-03-13T06:47:49.421Z,-6.49
2019-03-13T06:50:16.722Z,-6.44
2019-03-13T06:52:42.562Z,-6.41
2019-03-13T06:55:08.556Z,-6.36
2019-03-13T06:57:34.413Z,-6.33
2019-03-13T07:00:02.204Z,-6.31
2019-03-13T07:02:29.992Z,-6.26
2019-03-13T07:05:00.645Z,-6.22
2019-03-13T07:07:45.282Z,-6.17
2019-03-13T07:10:15.658Z,-6.12
2019-03-13T07:12:43.431Z,-6.07
2019-03-13T07:15:11.324Z,-6.02
2019-03-13T07:17:48.107Z,-6.00
2019-03-13T07:20:33.901Z,-5.94
2019-03-13T07:23:01.682Z,-5.89
2019-03-13T07:25:45.984Z,-6.09
2019-03-13T07:28:16.610Z,-5.78
2019-03-13T07:30:44.498Z,-5.72
2019-03-13T07:33:18.083Z,-5.66
2019-03-13T07:35:48.748Z,-5.60
2019-03-13T07:38:22.183Z,-5.53
2019-03-13T07:40:55.610Z,-5.48
2019-03-13T07:43:38.144Z,-5.41
2019-03-13T07:46:22.685Z,-5.37
2019-03-13T07:48:56.251Z,-5.29
2019-03-13T07:51:26.695Z,-5.24
2019-03-13T07:53:54.534Z,-5.19
2019-03-13T07:56:24.898Z,-5.13
2019-03-13T07:58:55.572Z,-5.08
2019-03-13T08:01:23.586Z,-5.04
2019-03-13T08:04:09.386Z,-4.98
2019-03-13T08:06:49.112Z,-4.93
2019-03-13T08:09:17.000Z,-4.88
2019-03-13T08:12:01.138Z,-4.82
2019-03-13T08:14:28.860Z,-4.75
2019-03-13T08:17:13.103Z,-4.68
2019-03-13T08:19:46.764Z,-4.62
2019-03-13T08:22:26.542Z,-4.57
2019-03-13T08:24:54.313Z,-4.51
2019-03-13T08:27:22.050Z,-4.45
2019-03-13T08:29:50.114Z,-4.41
2019-03-13T08:32:20.742Z,-4.35
2019-03-13T08:34:51.365Z,-4.30
2019-03-13T08:37:19.142Z,-4.23
2019-03-13T08:39:46.896Z,-4.17
2019-03-13T08:42:17.345Z,-4.13
2019-03-13T08:44:48.043Z,-4.08
2019-03-13T08:47:15.790Z,-4.02
2019-03-13T08:49:43.548Z,-3.96
2019-03-13T08:52:29.200Z,-3.91
2019-03-13T08:55:13.153Z,-3.87
2019-03-13T08:57:49.824Z,-3.84
2019-03-13T09:00:20.344Z,-3.80
2019-03-13T09:02:48.281Z,-3.74
2019-03-13T09:05:16.153Z,-3.69
2019-03-13T09:07:43.917Z,-3.64
2019-03-13T09:10:22.777Z,-3.60
2019-03-13T09:13:01.878Z,-3.56
2019-03-13T09:15:32.011Z,-3.52
2019-03-13T09:18:14.828Z,-3.46
2019-03-13T09:20:51.586Z,-3.43
2019-03-13T09:23:28.121Z,-3.37
2019-03-13T09:26:04.657Z,-3.32
2019-03-13T09:28:41.455Z,-3.27
2019-03-13T09:31:09.225Z,-3.22
2019-03-13T09:33:51.899Z,-3.16
2019-03-13T09:36:19.881Z,-3.13
2019-03-13T09:38:56.744Z,-3.04
2019-03-13T09:41:24.631Z,-2.97
2019-03-13T09:43:55.016Z,-2.90
2019-03-13T09:46:28.470Z,-2.85
2019-03-13T09:49:05.260Z,-2.79
2019-03-13T09:51:39.026Z,-2.74
2019-03-13T09:54:12.590Z,-2.67
2019-03-13T09:56:56.712Z,-2.64
2019-03-13T09:59:27.355Z,-2.59
2019-03-13T10:02:09.961Z,-2.53
2019-03-13T10:04:37.899Z,-2.49
2019-03-13T10:07:11.397Z,-2.45
2019-03-13T10:09:45.052Z,-2.42
2019-03-13T10:12:12.817Z,-2.37
2019-03-13T10:14:43.201Z,-2.33
2019-03-13T10:17:19.626Z,-2.28
2019-03-13T10:20:05.568Z,-2.22
2019-03-13T10:22:48.116Z,-2.17
2019-03-13T10:25:24.804Z,-2.14
2019-03-13T10:28:10.338Z,-2.10
2019-03-13T10:30:38.093Z,-2.03
2019-03-13T10:33:14.915Z,-1.99
2019-03-13T10:36:00.860Z,-1.94
2019-03-13T10:38:44.909Z,-2.15
2019-03-13T10:41:15.506Z,-1.86
2019-03-13T10:43:55.051Z,-1.82
2019-03-13T10:46:25.450Z,-1.78
2019-03-13T10:49:01.874Z,-1.73
2019-03-13T10:51:45.884Z,-1.70
2019-03-13T10:54:19.680Z,-1.65
2019-03-13T10:56:50.315Z,-1.61
2019-03-13T10:59:20.998Z,-1.59
2019-03-13T11:01:51.693Z,-1.56
2019-03-13T11:04:22.026Z,-1.53
2019-03-13T11:07:06.520Z,-1.51
2019-03-13T11:09:49.020Z,-1.49
2019-03-13T11:12:28.739Z,-1.50
2019-03-13T11:15:02.200Z,-1.46
2019-03-13T11:17:29.975Z,-1.43
2019-03-13T11:20:00.530Z,-1.40
2019-03-13T11:22:28.408Z,-1.38
2019-03-13T11:25:10.925Z,-1.34
2019-03-13T11:27:41.388Z,-1.29
2019-03-13T11:30:13.561Z,-1.25
2019-03-13T11:32:41.434Z,-1.23
2019-03-13T11:35:15.200Z,-1.22
2019-03-13T11:37:48.961Z,-1.20
2019-03-13T11:40:34.835Z,-1.18
2019-03-13T11:43:20.398Z,-1.15
2019-03-13T11:45:48.197Z,-1.13
2019-03-13T11:48:24.652Z,-1.09
2019-03-13T11:50:58.119Z,-1.04
2019-03-13T11:53:28.527Z,-1.00
2019-03-13T11:55:56.325Z,-0.95
2019-03-13T11:58:24.080Z,-0.89
2019-03-13T12:01:00.577Z,-0.84
2019-03-13T12:03:28.460Z,-0.81
2019-03-13T12:06:01.857Z,-0.78
2019-03-13T12:08:41.823Z,-0.77
2019-03-13T12:11:21.257Z,-0.74
2019-03-13T12:13:54.637Z,-0.72
2019-03-13T12:16:37.370Z,-0.71
2019-03-13T12:19:05.122Z,-0.70
2019-03-13T12:21:32.907Z,-0.70
2019-03-13T12:24:12.452Z,-0.72
2019-03-13T12:26:43.124Z,-0.71
2019-03-13T12:29:10.962Z,-0.68
2019-03-13T12:31:38.741Z,-0.68
2019-03-13T12:34:06.515Z,-0.65
2019-03-13T12:36:34.468Z,-0.63
2019-03-13T12:39:02.263Z,-0.60
2019-03-13T12:41:46.276Z,-0.58
2019-03-13T12:44:14.167Z,-0.56
2019-03-13T12:46:44.561Z,-0.57
2019-03-13T12:49:15.184Z,-0.56
2019-03-13T12:51:52.233Z,-0.56
2019-03-13T12:54:31.812Z,-0.57
2019-03-13T12:57:08.641Z,-0.57
2019-03-13T12:59:39.014Z,-0.59
2019-03-13T13:02:21.573Z,-0.60
2019-03-13T13:04:49.331Z,-0.61
2019-03-13T13:07:19.976Z,-0.62
2019-03-13T13:09:47.917Z,-0.62
2019-03-13T13:12:33.422Z,-0.61
2019-03-13T13:15:04.056Z,-0.62
2019-03-13T13:17:34.808Z,-0.64
2019-03-13T13:20:00.784Z,-0.65
2019-03-13T13:22:26.727Z,-0.65
2019-03-13T13:24:52.711Z,-0.67
2019-03-13T13:27:18.677Z,-0.66
2019-03-13T13:29:44.517Z,-0.65
2019-03-13T13:32:10.374Z,-0.64
2019-03-13T13:34:36.349Z,-0.62
2019-03-13T13:37:02.304Z,-0.61
2019-03-13T13:39:28.285Z,-0.61
2019-03-13T13:41:54.226Z,-0.61
2019-03-13T13:44:20.070Z,-0.61
2019-03-13T13:46:46.253Z,-0.62
2019-03-13T13:49:12.127Z,-0.63
2019-03-13T13:51:37.958Z,-0.63
2019-03-13T13:54:03.837Z,-0.63
2019-03-13T13:56:29.813Z,-0.63
2019-03-13T13:58:55.670Z,-0.64
2019-03-13T14:01:21.628Z,-0.65
2019-03-13T14:03:47.600Z,-0.66
2019-03-13T14:06:13.456Z,-0.66
2019-03-13T14:08:39.318Z,-0.68
2019-03-13T14:11:05.469Z,-0.70
2019-03-13T14:13:31.455Z,-0.70
2019-03-13T14:15:57.306Z,-0.67
2019-03-13T14:18:23.147Z,-0.66
2019-03-13T14:20:49.125Z,-0.66
2019-03-13T14:23:15.101Z,-0.66
2019-03-13T14:25:41.075Z,-0.65
2019-03-13T14:28:07.077Z,-0.66
2019-03-13T14:30:33.075Z,-0.67
2019-03-13T14:32:58.966Z,-0.66
2019-03-13T14:35:24.861Z,-0.65
2019-03-13T14:37:50.830Z,-0.67
2019-03-13T14:40:17.397Z,-0.67
2019-03-13T14:42:43.256Z,-0.68
2019-03-13T14:45:16.162Z,-0.68
2019-03-13T14:47:42.021Z,-0.67
2019-03-13T14:50:11.896Z,-0.67
2019-03-13T14:52:37.743Z,-0.68
2019-03-13T14:55:05.417Z,-0.71
2019-03-13T14:57:31.323Z,-0.71
2019-03-13T14:59:57.258Z,-0.71
2019-03-13T15:02:23.099Z,-0.70
2019-03-13T15:04:49.108Z,-0.68
2019-03-13T15:07:14.983Z,-0.67
2019-03-13T15:09:41.066Z,-0.67
2019-03-13T15:12:07.029Z,-0.69
2019-03-13T15:14:32.889Z,-0.70
2019-03-13T15:16:58.792Z,-0.73
2019-03-13T15:19:26.029Z,-0.75
2019-03-13T15:21:51.973Z,-0.76
2019-03-13T15:24:17.830Z,-0.75
2019-03-13T15:26:43.738Z,-0.74
2019-03-13T15:29:09.642Z,-0.76
2019-03-13T15:31:35.586Z,-0.77
2019-03-13T15:34:01.456Z,-0.78
2019-03-13T15:36:27.324Z,-0.79
2019-03-13T15:38:53.163Z,-0.80
2019-03-13T15:41:19.029Z,-0.81
2019-03-13T15:43:44.899Z,-0.80
2019-03-13T15:46:10.755Z,-0.82
2019-03-13T15:48:36.747Z,-0.82
2019-03-13T15:51:02.704Z,-0.82
2019-03-13T15:53:28.662Z,-0.83
2019-03-13T15:55:54.607Z,-0.82
2019-03-13T15:58:20.515Z,-0.81
2019-03-13T16:00:46.488Z,-0.84
2019-03-13T16:03:12.332Z,-0.84
2019-03-13T16:05:38.204Z,-0.84
2019-03-13T16:08:04.094Z,-0.84
2019-03-13T16:10:29.962Z,-0.84
2019-03-13T16:12:57.909Z,-0.83
2019-03-13T16:15:28.930Z,-0.84
2019-03-13T16:17:54.856Z,-0.85
2019-03-13T16:20:20.827Z,-0.87
2019-03-13T16:22:51.456Z,-0.88
2019-03-13T16:25:17.295Z,-0.89
2019-03-13T16:27:43.175Z,-0.91
2019-03-13T16:30:23.943Z,-0.91
2019-03-13T16:32:49.797Z,-0.90
2019-03-13T16:35:15.760Z,-0.93
2019-03-13T16:37:41.657Z,-0.94
2019-03-13T16:40:09.321Z,-0.97
2019-03-13T16:42:36.417Z,-0.97
2019-03-13T16:45:03.533Z,-0.95
2019-03-13T16:47:29.365Z,-0.97
2019-03-13T16:49:55.337Z,-0.97
2019-03-13T16:52:21.310Z,-0.95
2019-03-13T16:54:47.164Z,-0.95
2019-03-13T16:57:13.083Z,-0.94
2019-03-13T16:59:39.057Z,-0.92
2019-03-13T17:02:05.061Z,-0.91
2019-03-13T17:04:30.899Z,-0.91
2019-03-13T17:06:56.879Z,-0.93
2019-03-13T17:09:22.754Z,-0.94
2019-03-13T17:11:48.606Z,-0.94
2019-03-13T17:14:14.670Z,-0.96
2019-03-13T17:16:40.510Z,-0.96
2019-03-13T17:19:06.417Z,-0.97
2019-03-13T17:21:32.320Z,-0.97
2019-03-13T17:23:58.183Z,-0.96
2019-03-13T17:26:24.027Z,-0.97
2019-03-13T17:28:50.453Z,-0.98
2019-03-13T17:31:16.508Z,-0.97
2019-03-13T17:33:42.389Z,-0.99
2019-03-13T17:36:08.238Z,-0.98
2019-03-13T17:38:34.096Z,-1.00
2019-03-13T17:41:00.348Z,-0.98
2019-03-13T17:43:38.680Z,-0.98
2019-03-13T17:45:54.085Z,-0.99
2019-03-13T17:48:20.035Z,-0.99
2019-03-13T17:50:45.956Z,-0.97
2019-03-13T17:53:11.917Z,-0.96
2019-03-13T17:55:39.014Z,-0.96
2019-03-13T17:58:04.882Z,-0.96
2019-03-13T18:00:49.472Z,-0.96
2019-03-13T18:03:15.526Z,-0.96
2019-03-13T18:05:41.389Z,-0.96
2019-03-13T18:08:07.350Z,-0.96
2019-03-13T18:10:33.313Z,-0.96
2019-03-13T18:12:59.167Z,-0.93
2019-03-13T18:15:25.116Z,-0.92
2019-03-13T18:17:51.086Z,-0.94
2019-03-13T18:20:17.550Z,-0.95
2019-03-13T18:22:43.395Z,-0.96
2019-03-13T18:25:09.470Z,-0.94
2019-03-13T18:27:35.548Z,-0.95
2019-03-13T18:30:01.512Z,-0.94
2019-03-13T18:32:27.419Z,-0.94
2019-03-13T18:34:53.362Z,-0.95
2019-03-13T18:37:19.346Z,-0.93
2019-03-13T18:39:45.225Z,-1.20
2019-03-13T18:42:11.162Z,-0.95
2019-03-13T18:44:38.121Z,-0.96
2019-03-13T18:47:04.095Z,-1.03
2019-03-13T18:49:29.950Z,-0.96
2019-03-13T18:51:55.815Z,-0.97
2019-03-13T18:54:21.705Z,-0.96
2019-03-13T18:56:47.552Z,-0.96
2019-03-13T18:59:13.490Z,-0.98
2019-03-13T19:01:39.370Z,-0.98
2019-03-13T19:04:05.472Z,-0.99
2019-03-13T19:06:31.371Z,-1.00
2019-03-13T19:08:57.247Z,-1.00
2019-03-13T19:11:23.341Z,-1.00
2019-03-13T19:13:49.189Z,-0.99
2019-03-13T19:16:15.211Z,-0.99
2019-03-13T19:18:41.086Z,-1.00
2019-03-13T19:21:07.151Z,-1.01
2019-03-13T19:23:33.139Z,-1.02
2019-03-13T19:25:59.090Z,-1.03
2019-03-13T19:28:25.078Z,-1.03
2019-03-13T19:30:51.116Z,-1.02
2019-03-13T19:33:17.063Z,-1.04
2019-03-13T19:35:43.042Z,-1.03
2019-03-13T19:38:09.779Z,-1.02
2019-03-13T19:40:35.867Z,-1.00
2019-03-13T19:43:01.811Z,-0.98
2019-03-13T19:45:29.626Z,-0.98
2019-03-13T19:47:55.665Z,-0.97
2019-03-13T19:50:21.576Z,-0.96
2019-03-13T19:52:47.627Z,-0.96
2019-03-13T19:55:13.820Z,-1.22
2019-03-13T19:57:39.663Z,-0.95
2019-03-13T20:00:10.491Z,-0.93
2019-03-13T20:02:36.366Z,-0.92
2019-03-13T20:05:02.812Z,-0.92
2019-03-13T20:07:28.761Z,-0.92
2019-03-13T20:09:54.768Z,-0.91
2019-03-13T20:12:20.728Z,-0.90
2019-03-13T20:14:46.670Z,-0.90
2019-03-13T20:17:12.626Z,-0.92
2019-03-13T20:19:38.500Z,-0.93
2019-03-13T20:22:04.372Z,-0.94
2019-03-13T20:24:30.217Z,-0.93
2019-03-13T20:26:56.136Z,-0.92
2019-03-13T20:29:22.043Z,-0.91
2019-03-13T20:31:47.955Z,-0.89
2019-03-13T20:34:13.875Z,-0.89
2019-03-13T20:36:39.755Z,-0.88
2019-03-13T20:39:05.808Z,-0.88
2019-03-13T20:41:31.862Z,-0.88
2019-03-13T20:43:57.748Z,-0.87
2019-03-13T20:46:23.759Z,-0.87
2019-03-13T20:48:49.622Z,-0.86
2019-03-13T20:51:15.564Z,-0.88
2019-03-13T20:53:41.436Z,-0.88
2019-03-13T20:56:07.407Z,-0.88
2019-03-13T20:58:33.280Z,-0.88
2019-03-13T21:00:59.319Z,-0.88
2019-03-13T21:03:25.184Z,-0.88
2019-03-13T21:05:52.249Z,-0.86
2019-03-13T21:08:18.127Z,-0.83
2019-03-13T21:10:43.976Z,-0.84
2019-03-13T21:13:09.881Z,-0.82
2019-03-13T21:15:35.726Z,-0.80
2019-03-13T21:18:01.698Z,-0.80
2019-03-13T21:20:27.680Z,-0.78
2019-03-13T21:22:53.636Z,-0.79
2019-03-13T21:25:21.415Z,-0.80
2019-03-13T21:27:48.045Z,-0.81
2019-03-13T21:30:16.025Z,-0.80
2019-03-13T21:32:42.100Z,-0.80
2019-03-13T21:35:08.091Z,-0.79
2019-03-13T21:37:33.943Z,-0.81
2019-03-13T21:39:59.807Z,-0.77
2019-03-13T21:42:26.601Z,-0.77
2019-03-13T21:44:52.574Z,-0.76
2019-03-13T21:47:18.659Z,-0.74
2019-03-13T21:49:44.935Z,-0.74
2019-03-13T21:52:10.894Z,-0.72
2019-03-13T21:54:36.867Z,-0.70
2019-03-13T21:57:02.862Z,-0.69
2019-03-13T21:59:28.739Z,-0.68
2019-03-13T22:01:54.708Z,-0.65
2019-03-13T22:04:24.357Z,-0.64
2019-03-13T22:06:48.293Z,-0.64
2019-03-13T22:09:14.148Z,-0.63
2019-03-13T22:11:40.160Z,-0.62
2019-03-13T22:14:06.112Z,-0.61
2019-03-13T22:16:31.969Z,-0.60
2019-03-13T22:18:58.016Z,-0.58
2019-03-13T22:21:24.072Z,-0.59
2019-03-13T22:23:49.943Z,-0.58
2019-03-13T22:26:15.814Z,-0.57
2019-03-13T22:28:41.766Z,-0.56
2019-03-13T22:31:07.645Z,-0.56
2019-03-13T22:33:33.527Z,-0.55
2019-03-13T22:35:59.382Z,-0.55
2019-03-13T22:38:25.214Z,-0.53
2019-03-13T22:40:51.118Z,-0.56
2019-03-13T22:43:17.078Z,-0.57
2019-03-13T22:45:43.033Z,-0.56
2019-03-13T22:48:08.993Z,-0.55
2019-03-13T22:50:34.844Z,-0.53
2019-03-13T22:53:00.678Z,-0.51
2019-03-13T22:55:26.659Z,-0.50
2019-03-13T22:57:52.513Z,-0.48
2019-03-13T23:00:24.726Z,-0.46
2019-03-13T23:02:50.692Z,-0.46
2019-03-13T23:05:16.526Z,-0.44
2019-03-13T23:07:42.433Z,-0.46
2019-03-13T23:10:26.941Z,-0.45
2019-03-13T23:12:52.803Z,-0.45
2019-03-13T23:15:18.815Z,-0.44
2019-03-13T23:17:44.667Z,-0.43
2019-03-13T23:20:10.857Z,-0.42
2019-03-13T23:22:36.691Z,-0.40
2019-03-13T23:25:02.968Z,-0.39
2019-03-13T23:27:28.906Z,-0.39
2019-03-13T23:29:54.754Z,-0.38
2019-03-13T23:32:20.617Z,-0.37
2019-03-13T23:34:46.612Z,-0.36
2019-03-13T23:37:12.583Z,-0.35
2019-03-13T23:39:38.436Z,-0.34
2019-03-13T23:42:04.379Z,-0.60
2019-03-13T23:44:30.219Z,-0.34
2019-03-13T23:46:56.131Z,-0.33
2019-03-13T23:49:22.064Z,-0.31
2019-03-13T23:51:47.916Z,-0.30
2019-03-13T23:54:13.832Z,-0.31
2019-03-13T23:56:39.800Z,-0.30
2019-03-13T23:59:07.171Z,-0.30
